Time;durP1;ratioP1;P1;durP2;ratioP2;P2;SDS_P1;SDS_P2;PMS_P1;PMS_P2;Temp;Humidity;BMP_temperature;BMP_pressure;BME280_temperature;BME280_humidity;BME280_pressure;Samples;Min_cycle;Max_cycle;Signal;HPM_P1;HPM_P2
2023/07/08 00:00:39;;;;;;;5.63;3.97;;;21.90;99.90;;;;;;5092646;28;20248;-51
2023/07/08 00:03:05;;;;;;;3.97;3.58;;;21.90;99.90;;;;;;5092111;28;20197;-50
2023/07/08 00:05:31;;;;;;;5.25;3.67;;;21.90;99.90;;;;;;5092693;28;20177;-50
2023/07/08 00:07:56;;;;;;;7.03;3.40;;;21.90;99.90;;;;;;5074464;28;20169;-51
2023/07/08 00:10:27;;;;;;;5.07;3.67;;;21.90;99.90;;;;;;5092786;28;20220;-52
2023/07/08 00:12:54;;;;;;;6.22;3.25;;;22.00;99.90;;;;;;5092828;28;20173;-52
2023/07/08 00:15:30;;;;;;;5.28;3.70;;;21.90;99.90;;;;;;5092704;28;20226;-52
2023/07/08 00:17:55;;;;;;;7.18;3.58;;;21.80;99.90;;;;;;5092727;28;20175;-51
2023/07/08 00:20:30;;;;;;;5.72;3.55;;;21.70;99.90;;;;;;5092757;28;20288;-51
2023/07/08 00:22:56;;;;;;;5.97;3.35;;;21.60;99.90;;;;;;5092380;28;20161;-50
2023/07/08 00:25:22;;;;;;;5.93;3.50;;;21.50;99.90;;;;;;5092923;28;20177;-51
2023/07/08 00:27:48;;;;;;;9.10;3.95;;;21.50;99.90;;;;;;5092528;28;20256;-51
2023/07/08 00:30:22;;;;;;;4.40;3.58;;;21.60;99.90;;;;;;5092242;28;20200;-51
2023/07/08 00:32:53;;;;;;;5.80;3.40;;;21.40;99.90;;;;;;5092133;28;20636;-50
2023/07/08 00:35:39;;;;;;;5.30;3.20;;;21.40;99.90;;;;;;5092675;28;20260;-51
2023/07/08 00:38:15;;;;;;;7.28;3.40;;;21.50;99.90;;;;;;5091449;28;20183;-51
2023/07/08 00:41:11;;;;;;;6.40;3.42;;;21.40;99.90;;;;;;5092032;28;20205;-50
2023/07/08 00:43:47;;;;;;;4.28;3.55;;;21.40;99.90;;;;;;5090795;28;20529;-51
2023/07/08 00:46:31;;;;;;;5.25;3.08;;;21.50;99.90;;;;;;5091946;28;20256;-50
2023/07/08 00:49:21;;;;;;;4.55;3.55;;;21.50;99.90;;;;;;5091970;28;20214;-50
2023/07/08 00:51:46;;;;;;;5.28;3.88;;;21.40;99.90;;;;;;5073796;28;20248;-50
2023/07/08 00:54:16;;;;;;;5.82;3.35;;;21.40;99.90;;;;;;5091904;28;20252;-50
2023/07/08 00:56:53;;;;;;;4.93;3.90;;;21.40;99.90;;;;;;5073582;28;20157;-50
2023/07/08 00:59:29;;;;;;;5.72;3.72;;;21.50;99.90;;;;;;5092468;28;20176;-50
2023/07/08 01:01:56;;;;;;;7.70;3.33;;;21.50;99.90;;;;;;5091691;28;20223;-51
2023/07/08 01:04:32;;;;;;;6.20;3.75;;;21.50;99.90;;;;;;5092168;28;20173;-52
2023/07/08 01:07:03;;;;;;;6.20;3.88;;;21.60;99.90;;;;;;5091667;28;20640;-50
2023/07/08 01:09:38;;;;;;;7.60;3.67;;;21.60;99.90;;;;;;5091416;28;20199;-49
2023/07/08 01:12:10;;;;;;;7.20;3.75;;;21.60;99.90;;;;;;5091327;28;20208;-52
2023/07/08 01:14:38;;;;;;;4.78;3.50;;;21.60;99.90;;;;;;5091273;28;20248;-52
2023/07/08 01:17:04;;;;;;;4.55;3.53;;;21.60;99.90;;;;;;5091505;28;20223;-52
2023/07/08 01:19:33;;;;;;;5.95;3.95;;;21.60;99.90;;;;;;5091614;28;20165;-49
2023/07/08 01:21:59;;;;;;;4.68;4.18;;;21.60;99.90;;;;;;5091485;28;20274;-50
2023/07/08 01:24:26;;;;;;;6.55;4.15;;;21.60;99.90;;;;;;5091570;28;20165;-49
2023/07/08 01:26:51;;;;;;;5.55;3.90;;;21.60;99.90;;;;;;5092010;28;20219;-50
2023/07/08 01:29:17;;;;;;;8.88;4.35;;;21.60;99.90;;;;;;5091402;28;20165;-49
2023/07/08 01:31:48;;;;;;;6.20;3.78;;;21.60;99.90;;;;;;5091410;28;20169;-49
2023/07/08 01:34:15;;;;;;;5.55;4.10;;;21.50;99.90;;;;;;5091610;28;20335;-52
2023/07/08 01:36:46;;;;;;;6.03;4.43;;;21.60;99.90;;;;;;5073243;28;20537;-50
2023/07/08 01:39:17;;;;;;;11.57;4.38;;;21.50;99.90;;;;;;5091362;28;20157;-49
2023/07/08 01:41:42;;;;;;;11.55;4.75;;;21.40;99.90;;;;;;5091273;28;20201;-50
2023/07/08 01:44:29;;;;;;;6.70;4.22;;;21.40;99.90;;;;;;5091265;28;20184;-49
2023/07/08 01:46:59;;;;;;;5.45;4.13;;;21.50;99.90;;;;;;5091263;28;20166;-50
2023/07/08 01:49:25;;;;;;;7.65;4.50;;;21.50;99.90;;;;;;5091291;28;20177;-48
2023/07/08 01:51:51;;;;;;;9.15;5.40;;;21.50;99.90;;;;;;5091649;28;20169;-51
2023/07/08 01:54:16;;;;;;;7.38;4.88;;;21.50;99.90;;;;;;5091344;28;20173;-52
2023/07/08 01:56:42;;;;;;;7.28;5.82;;;21.50;99.90;;;;;;5094623;28;20191;-52
2023/07/08 01:59:07;;;;;;;8.50;5.45;;;21.50;99.90;;;;;;5095121;28;20176;-52
2023/07/08 02:01:33;;;;;;;9.18;5.63;;;21.50;99.90;;;;;;5095003;28;20293;-51
2023/07/08 02:03:58;;;;;;;7.47;5.20;;;21.50;99.90;;;;;;5095274;28;20189;-50
2023/07/08 02:06:25;;;;;;;9.65;5.95;;;21.50;99.90;;;;;;5095036;28;20599;-50
2023/07/08 02:08:50;;;;;;;9.05;5.93;;;21.50;99.90;;;;;;5095382;28;20165;-49
2023/07/08 02:11:17;;;;;;;9.02;5.78;;;21.40;99.90;;;;;;5094724;28;20302;-50
2023/07/08 02:13:42;;;;;;;7.13;5.90;;;21.40;99.90;;;;;;5094869;28;20165;-51
2023/07/08 02:16:08;;;;;;;7.55;5.40;;;21.40;99.90;;;;;;5094741;28;20180;-51
2023/07/08 02:18:33;;;;;;;8.18;6.00;;;21.40;99.90;;;;;;5094989;28;20226;-50
2023/07/08 02:20:59;;;;;;;6.15;4.90;;;21.40;99.90;;;;;;5094678;28;20208;-51
2023/07/08 02:23:25;;;;;;;7.72;5.20;;;21.40;99.90;;;;;;5094893;28;20170;-52
2023/07/08 02:25:52;;;;;;;7.88;5.53;;;21.30;99.90;;;;;;5094998;28;20180;-49
2023/07/08 02:28:18;;;;;;;8.52;5.05;;;21.20;99.90;;;;;;5094532;28;20157;-52
2023/07/08 02:30:43;;;;;;;8.60;5.40;;;21.20;99.90;;;;;;5094771;28;20536;-51
2023/07/08 02:33:09;;;;;;;7.63;5.00;;;21.10;99.90;;;;;;5076393;28;20633;-51
2023/07/08 02:35:35;;;;;;;8.55;5.88;;;21.10;99.90;;;;;;5094696;28;20234;-51
2023/07/08 02:38:00;;;;;;;9.15;5.60;;;21.00;99.90;;;;;;5094455;28;20157;-51
2023/07/08 02:40:26;;;;;;;10.65;5.95;;;21.00;99.90;;;;;;5094553;28;20242;-51
2023/07/08 02:42:52;;;;;;;10.55;5.68;;;21.00;99.90;;;;;;5095013;28;20234;-51
2023/07/08 02:45:18;;;;;;;13.40;5.95;;;21.00;99.90;;;;;;5094333;28;20176;-51
2023/07/08 02:47:44;;;;;;;9.77;5.95;;;20.90;99.90;;;;;;5094142;28;20176;-51
2023/07/08 02:50:11;;;;;;;9.15;5.18;;;20.90;99.90;;;;;;5094118;28;20169;-50
2023/07/08 02:52:36;;;;;;;10.98;5.63;;;20.90;99.90;;;;;;5094151;28;20193;-51
2023/07/08 02:55:03;;;;;;;8.93;4.93;;;20.80;99.90;;;;;;5094036;28;20570;-51
2023/07/08 02:57:28;;;;;;;7.57;5.78;;;20.90;99.90;;;;;;5093997;28;20173;-51
2023/07/08 02:59:54;;;;;;;9.35;6.20;;;20.80;99.90;;;;;;5093746;28;20526;-51
2023/07/08 03:02:21;;;;;;;12.90;5.65;;;20.80;99.90;;;;;;5094358;28;20651;-52
2023/07/08 03:04:47;;;;;;;9.40;6.10;;;20.80;99.90;;;;;;5093825;28;20170;-51
2023/07/08 03:07:14;;;;;;;16.67;9.73;;;20.80;99.90;;;;;;5093490;28;21086;-51
2023/07/08 03:09:40;;;;;;;9.95;6.30;;;20.80;99.90;;;;;;5093645;28;20213;-51
2023/07/08 03:12:07;;;;;;;9.73;7.35;;;20.90;99.90;;;;;;5093759;28;20180;-51
2023/07/08 03:14:33;;;;;;;14.68;8.88;;;20.90;99.90;;;;;;5093639;28;20226;-51
2023/07/08 03:16:58;;;;;;;14.30;9.43;;;20.90;99.90;;;;;;5093124;28;20165;-49
2023/07/08 03:19:25;;;;;;;7.82;5.95;;;20.90;99.90;;;;;;5093630;28;20265;-50
2023/07/08 03:21:51;;;;;;;7.00;5.80;;;20.90;99.90;;;;;;5093773;28;20684;-49
2023/07/08 03:24:17;;;;;;;7.93;5.45;;;20.90;99.90;;;;;;5093474;28;20172;-50
2023/07/08 03:26:44;;;;;;;11.05;7.45;;;20.90;99.90;;;;;;5093417;28;20652;-51
2023/07/08 03:29:18;;;;;;;15.40;9.48;;;20.90;99.90;;;;;;5093590;28;20561;-50
2023/07/08 03:31:44;;;;;;;14.77;8.65;;;20.90;99.90;;;;;;5092758;28;20248;-50
2023/07/08 03:34:15;;;;;;;9.80;6.47;;;20.90;99.90;;;;;;5093267;28;20645;-51
2023/07/08 03:36:48;;;;;;;8.20;4.88;;;20.90;99.90;;;;;;5093397;28;20169;-51
2023/07/08 03:39:19;;;;;;;5.72;4.93;;;20.90;99.90;;;;;;5093121;28;20161;-50
2023/07/08 03:41:45;;;;;;;9.70;5.13;;;20.90;99.90;;;;;;5093037;28;20359;-50
2023/07/08 03:44:12;;;;;;;6.80;5.13;;;20.90;99.90;;;;;;5093051;28;20183;-50
2023/07/08 03:46:39;;;;;;;10.60;5.45;;;20.80;99.90;;;;;;5093029;28;20172;-49
2023/07/08 03:49:05;;;;;;;9.10;6.93;;;20.80;99.90;;;;;;5093251;28;20169;-49
2023/07/08 03:51:35;;;;;;;8.63;5.55;;;20.80;99.90;;;;;;5092920;28;20169;-49
2023/07/08 03:54:00;;;;;;;7.13;5.22;;;20.70;99.90;;;;;;5092885;28;20184;-50
2023/07/08 03:56:26;;;;;;;10.25;5.55;;;20.70;99.90;;;;;;5092884;28;20637;-50
2023/07/08 03:58:52;;;;;;;7.38;5.70;;;20.80;99.90;;;;;;5093162;28;20177;-49
2023/07/08 04:01:26;;;;;;;8.77;6.57;;;20.80;99.90;;;;;;5092688;28;20789;-50
2023/07/08 04:03:53;;;;;;;12.48;9.23;;;20.80;99.90;;;;;;5093104;28;20195;-49
2023/07/08 04:06:20;;;;;;;12.23;8.65;;;21.30;99.90;;;;;;5093036;28;20248;-49
2023/07/08 04:08:46;;;;;;;8.65;6.97;;;20.80;99.90;;;;;;5092573;28;20222;-50
2023/07/08 04:11:13;;;;;;;6.07;5.47;;;20.80;99.90;;;;;;5092452;28;20685;-50
2023/07/08 04:13:39;;;;;;;9.18;5.25;;;20.90;99.90;;;;;;5092487;28;20165;-49
2023/07/08 04:16:05;;;;;;;7.38;6.25;;;20.90;99.90;;;;;;5092525;28;20172;-49
2023/07/08 04:18:32;;;;;;;7.22;5.68;;;20.80;99.90;;;;;;5091673;28;20157;-52
2023/07/08 04:20:58;;;;;;;8.98;6.28;;;20.80;99.90;;;;;;5092353;28;20681;-49
2023/07/08 04:23:25;;;;;;;6.85;5.00;;;20.80;99.90;;;;;;5092625;28;20252;-50
2023/07/08 04:25:54;;;;;;;6.78;5.47;;;20.90;99.90;;;;;;5092663;28;20253;-49
2023/07/08 04:28:20;;;;;;;8.73;5.15;;;20.80;99.90;;;;;;5092654;28;20165;-49
2023/07/08 04:30:46;;;;;;;6.03;4.85;;;20.80;99.90;;;;;;5092199;28;20170;-49
2023/07/08 04:33:13;;;;;;;5.40;4.88;;;20.80;99.90;;;;;;5092164;28;20169;-50
2023/07/08 04:35:40;;;;;;;5.40;4.18;;;20.90;99.90;;;;;;5092031;28;20569;-49
2023/07/08 04:38:11;;;;;;;5.70;4.28;;;20.90;99.90;;;;;;5092000;28;20200;-49
2023/07/08 04:40:39;;;;;;;5.72;4.22;;;20.90;99.90;;;;;;5091711;28;20216;-49
2023/07/08 04:43:07;;;;;;;7.90;4.90;;;20.90;99.90;;;;;;5092236;28;20169;-49
2023/07/08 04:45:34;;;;;;;6.35;4.65;;;20.90;99.90;;;;;;5092289;28;20536;-49
2023/07/08 04:48:00;;;;;;;5.88;4.30;;;20.90;99.90;;;;;;5091858;28;20540;-49
2023/07/08 04:50:25;;;;;;;6.95;4.80;;;20.90;99.90;;;;;;5092041;28;20165;-49
2023/07/08 04:52:51;;;;;;;4.22;3.80;;;20.90;99.90;;;;;;5092297;28;20510;-49
2023/07/08 04:55:18;;;;;;;7.28;5.47;;;21.00;99.90;;;;;;5091840;28;20162;-49
2023/07/08 04:57:43;;;;;;;6.75;4.30;;;21.00;99.90;;;;;;5091850;28;20214;-49
2023/07/08 05:00:16;;;;;;;5.55;4.38;;;21.20;99.90;;;;;;5091763;28;20189;-50
2023/07/08 05:02:42;;;;;;;6.30;4.68;;;21.30;99.90;;;;;;5092033;28;20178;-49
2023/07/08 05:05:08;;;;;;;6.93;4.13;;;21.40;99.90;;;;;;5091975;28;20234;-49
2023/07/08 05:07:33;;;;;;;5.43;4.78;;;21.70;99.90;;;;;;5091686;28;20181;-49
2023/07/08 05:09:59;;;;;;;5.28;4.78;;;21.80;99.90;;;;;;5091590;28;20288;-50
2023/07/08 05:12:26;;;;;;;4.82;4.07;;;21.90;99.90;;;;;;5091605;28;20170;-49
2023/07/08 05:14:52;;;;;;;6.30;4.25;;;21.90;99.90;;;;;;5092042;28;20213;-50
2023/07/08 05:17:17;;;;;;;6.95;4.80;;;22.00;99.90;;;;;;5091763;28;20169;-49
2023/07/08 05:19:45;;;;;;;6.53;4.80;;;22.10;99.90;;;;;;5091375;28;20258;-49
2023/07/08 05:22:11;;;;;;;4.90;4.35;;;22.20;99.90;;;;;;5091342;28;20703;-49
2023/07/08 05:24:37;;;;;;;5.18;4.68;;;22.10;99.90;;;;;;5091558;28;20176;-49
2023/07/08 05:27:03;;;;;;;5.68;4.88;;;22.20;99.90;;;;;;5091524;28;20161;-49
2023/07/08 05:29:29;;;;;;;6.32;4.95;;;22.20;99.90;;;;;;5093403;28;20169;-50
2023/07/08 05:31:55;;;;;;;6.45;4.65;;;22.20;99.90;;;;;;5095709;28;20168;-49
2023/07/08 05:34:20;;;;;;;7.78;4.90;;;22.20;99.90;;;;;;5095986;28;20543;-50
2023/07/08 05:36:46;;;;;;;5.93;4.65;;;22.10;99.90;;;;;;5095480;28;20177;-50
2023/07/08 05:39:12;;;;;;;8.13;5.03;;;22.20;99.90;;;;;;5095524;28;20176;-50
2023/07/08 05:41:37;;;;;;;5.90;4.53;;;22.40;99.90;;;;;;5095456;28;20575;-50
2023/07/08 05:44:03;;;;;;;7.55;5.18;;;22.40;99.90;;;;;;5095582;28;20169;-49
2023/07/08 05:46:28;;;;;;;7.78;5.18;;;22.50;99.90;;;;;;5095335;28;20165;-49
2023/07/08 05:48:54;;;;;;;7.07;4.43;;;22.70;99.90;;;;;;5095414;28;20158;-50
2023/07/08 05:51:20;;;;;;;4.60;4.18;;;22.70;99.90;;;;;;5095610;28;20179;-50
2023/07/08 05:53:46;;;;;;;5.38;4.25;;;22.50;99.90;;;;;;5095302;28;20165;-50
2023/07/08 05:56:11;;;;;;;8.00;5.28;;;22.50;99.90;;;;;;5095163;28;20184;-50
2023/07/08 05:58:37;;;;;;;6.97;4.60;;;22.60;99.90;;;;;;5095396;28;20288;-50
2023/07/08 06:01:02;;;;;;;7.22;4.97;;;22.50;99.90;;;;;;5095267;28;20212;-50
2023/07/08 06:03:28;;;;;;;5.80;5.20;;;22.70;99.90;;;;;;5095337;28;20169;-50
2023/07/08 06:05:54;;;;;;;5.40;4.60;;;22.60;99.90;;;;;;5094941;28;20180;-50
2023/07/08 06:08:20;;;;;;;7.13;4.30;;;22.50;99.90;;;;;;5095516;28;20266;-50
2023/07/08 06:10:46;;;;;;;6.47;4.57;;;22.60;99.90;;;;;;5094760;28;20292;-50
2023/07/08 06:13:12;;;;;;;5.25;4.20;;;22.70;99.90;;;;;;5094897;28;20700;-50
2023/07/08 06:15:39;;;;;;;7.43;4.78;;;22.80;99.90;;;;;;5094711;28;20701;-49
2023/07/08 06:18:05;;;;;;;7.70;4.80;;;22.80;99.90;;;;;;5094708;28;20173;-50
2023/07/08 06:20:31;;;;;;;4.97;4.47;;;22.80;99.90;;;;;;5094741;28;20703;-49
2023/07/08 06:22:56;;;;;;;7.07;4.55;;;22.70;99.90;;;;;;5094789;28;20222;-50
2023/07/08 06:25:22;;;;;;;10.02;5.47;;;22.70;99.90;;;;;;5095027;28;20174;-49
2023/07/08 06:27:47;;;;;;;7.30;4.35;;;22.60;99.90;;;;;;5094650;28;20253;-50
2023/07/08 06:30:13;;;;;;;5.10;4.50;;;22.60;99.90;;;;;;5094623;28;20170;-50
2023/07/08 06:32:39;;;;;;;6.32;4.10;;;22.60;99.90;;;;;;5094580;28;20201;-49
2023/07/08 06:35:05;;;;;;;7.35;5.03;;;22.70;99.90;;;;;;5094641;28;20700;-49
2023/07/08 06:37:30;;;;;;;6.35;4.85;;;23.00;99.90;;;;;;5094478;28;20176;-50
2023/07/08 06:39:56;;;;;;;9.07;4.70;;;23.10;99.90;;;;;;5094419;28;20170;-49
2023/07/08 06:42:21;;;;;;;5.25;4.60;;;23.30;99.90;;;;;;5093974;28;20178;-51
2023/07/08 06:44:50;;;;;;;6.88;4.75;;;23.40;99.90;;;;;;5094536;28;20166;-50
2023/07/08 06:47:20;;;;;;;4.88;4.15;;;23.50;99.90;;;;;;5094485;28;20177;-51
2023/07/08 06:49:46;;;;;;;4.95;4.45;;;23.30;99.90;;;;;;5094363;28;20306;-51
2023/07/08 06:52:12;;;;;;;5.07;4.40;;;23.20;99.90;;;;;;5094274;28;20165;-51
2023/07/08 06:54:37;;;;;;;7.05;4.95;;;23.50;99.90;;;;;;5094069;28;20529;-51
2023/07/08 06:57:03;;;;;;;8.05;4.63;;;23.50;99.90;;;;;;5075905;28;20200;-51
2023/07/08 06:59:29;;;;;;;6.65;5.07;;;23.50;99.90;;;;;;5094087;28;20169;-51
2023/07/08 07:01:54;;;;;;;8.65;5.43;;;23.80;99.90;;;;;;5093963;28;20258;-51
2023/07/08 07:04:20;;;;;;;6.10;4.90;;;24.00;99.90;;;;;;5094407;28;20652;-51
2023/07/08 07:06:45;;;;;;;5.85;5.20;;;24.20;99.90;;;;;;5093919;28;20173;-51
2023/07/08 07:09:11;;;;;;;7.07;5.28;;;24.30;99.90;;;;;;5093858;28;20158;-50
2023/07/08 07:11:37;;;;;;;5.68;5.03;;;24.50;99.90;;;;;;5093741;28;20203;-50
2023/07/08 07:14:03;;;;;;;6.70;6.00;;;24.70;99.90;;;;;;5093716;28;20618;-50
2023/07/08 07:16:28;;;;;;;7.03;6.10;;;24.90;99.90;;;;;;5093871;28;20530;-50
2023/07/08 07:18:54;;;;;;;7.55;5.10;;;25.00;99.90;;;;;;5093642;28;20165;-51
2023/07/08 07:21:20;;;;;;;7.35;5.30;;;25.00;99.90;;;;;;5093924;28;20282;-50
2023/07/08 07:23:45;;;;;;;8.93;4.90;;;25.00;99.90;;;;;;5093601;28;20231;-51
2023/07/08 07:26:11;;;;;;;6.57;5.43;;;25.00;99.90;;;;;;5093489;28;20643;-52
2023/07/08 07:28:37;;;;;;;9.80;6.00;;;25.20;99.90;;;;;;5093578;28;20172;-51
2023/07/08 07:31:05;;;;;;;6.15;5.55;;;25.30;99.90;;;;;;5093420;28;20219;-51
2023/07/08 07:33:31;;;;;;;6.70;4.80;;;25.50;99.90;;;;;;5093282;28;20656;-51
2023/07/08 07:35:57;;;;;;;10.52;5.25;;;25.70;99.90;;;;;;5093231;28;20208;-51
2023/07/08 07:38:28;;;;;;;8.38;5.63;;;25.80;99.90;;;;;;5093668;28;20653;-51
2023/07/08 07:40:54;;;;;;;8.30;5.20;;;25.70;99.90;;;;;;5093332;28;20560;-50
2023/07/08 07:43:19;;;;;;;8.57;6.43;;;25.90;99.90;;;;;;5093541;28;20161;-51
2023/07/08 07:45:45;;;;;;;7.50;5.75;;;26.00;99.90;;;;;;5093001;28;20165;-50
2023/07/08 07:48:10;;;;;;;8.43;5.90;;;26.20;99.90;;;;;;5074798;28;20169;-52
2023/07/08 07:50:36;;;;;;;8.73;6.32;;;26.50;99.90;;;;;;5093033;28;20247;-51
2023/07/08 07:53:01;;;;;;;10.90;6.82;;;26.40;99.90;;;;;;5092047;28;20172;-51
2023/07/08 07:55:27;;;;;;;12.57;6.57;;;26.40;99.90;;;;;;5092941;28;20165;-52
2023/07/08 07:57:53;;;;;;;8.23;6.03;;;26.10;99.90;;;;;;5092961;28;20636;-50
2023/07/08 08:00:19;;;;;;;8.63;6.22;;;26.40;99.80;;;;;;5074810;28;20197;-50
2023/07/08 08:02:45;;;;;;;7.72;6.10;;;26.50;99.10;;;;;;5092774;28;20180;-50
2023/07/08 08:05:11;;;;;;;14.15;7.80;;;26.50;98.30;;;;;;5092938;28;20531;-49
2023/07/08 08:07:36;;;;;;;10.32;6.43;;;26.60;99.60;;;;;;5092675;28;20649;-50
2023/07/08 08:10:03;;;;;;;10.80;7.60;;;26.70;97.80;;;;;;5092631;28;20200;-49
2023/07/08 08:12:29;;;;;;;17.13;6.28;;;26.70;98.30;;;;;;5092799;28;20169;-49
2023/07/08 08:14:55;;;;;;;7.95;6.20;;;26.90;98.40;;;;;;5092537;28;20168;-50
2023/07/08 08:17:20;;;;;;;13.63;7.05;;;27.20;99.20;;;;;;5092826;28;20172;-50
2023/07/08 08:19:46;;;;;;;12.38;6.43;;;27.00;98.20;;;;;;5092473;28;20172;-49
2023/07/08 08:22:11;;;;;;;15.68;6.38;;;27.30;98.40;;;;;;5092263;28;20205;-50
2023/07/08 08:24:37;;;;;;;9.07;5.63;;;27.40;99.20;;;;;;5092512;28;20172;-50
2023/07/08 08:27:03;;;;;;;9.38;6.13;;;27.70;98.10;;;;;;5092373;28;20161;-50
2023/07/08 08:29:28;;;;;;;7.00;5.53;;;27.70;97.30;;;;;;5092119;28;20531;-49
2023/07/08 08:31:54;;;;;;;8.80;5.95;;;27.80;96.90;;;;;;5092160;28;20163;-47
2023/07/08 08:34:20;;;;;;;11.73;6.57;;;27.80;97.00;;;;;;5092497;28;20168;-49
2023/07/08 08:36:46;;;;;;;9.52;5.50;;;27.90;95.80;;;;;;5092113;28;20176;-51
2023/07/08 08:39:11;;;;;;;18.25;6.82;;;28.10;95.90;;;;;;5092106;28;20203;-51
2023/07/08 08:41:40;;;;;;;10.90;6.85;;;28.10;95.00;;;;;;5091990;28;20291;-51
2023/07/08 08:44:10;;;;;;;8.15;6.22;;;28.30;95.40;;;;;;5091898;28;20165;-51
2023/07/08 08:46:46;;;;;;;7.82;5.97;;;28.10;94.40;;;;;;5091959;28;20165;-52
2023/07/08 08:49:30;;;;;;;7.97;6.25;;;28.10;94.90;;;;;;5091867;28;20169;-52
2023/07/08 08:51:57;;;;;;;8.07;6.65;;;28.40;95.10;;;;;;5091799;28;20510;-51
2023/07/08 08:54:23;;;;;;;8.35;6.32;;;28.50;94.50;;;;;;5091868;28;20160;-50
2023/07/08 08:57:05;;;;;;;6.82;6.13;;;28.50;93.90;;;;;;5092384;28;20172;-52
2023/07/08 08:59:56;;;;;;;9.25;6.03;;;28.70;94.10;;;;;;5073655;28;20160;-51
2023/07/08 09:02:49;;;;;;;10.73;6.15;;;28.70;93.80;;;;;;5092181;28;20201;-51
2023/07/08 09:05:15;;;;;;;8.52;6.13;;;28.70;92.70;;;;;;5091306;28;20169;-51
2023/07/08 09:08:18;;;;;;;9.38;6.57;;;28.90;93.50;;;;;;5091702;28;20240;-51
2023/07/08 09:11:13;;;;;;;9.07;6.05;;;29.00;93.10;;;;;;5091445;28;20224;-50
2023/07/08 09:13:38;;;;;;;8.52;5.88;;;29.10;93.40;;;;;;5091475;28;20176;-51
2023/07/08 09:16:26;;;;;;;9.20;6.00;;;29.20;92.30;;;;;;5091612;28;20157;-50
2023/07/08 09:19:14;;;;;;;7.70;5.82;;;29.20;92.90;;;;;;5092049;28;20206;-50
2023/07/08 09:21:48;;;;;;;7.10;5.82;;;29.40;92.20;;;;;;5091426;28;20227;-50
2023/07/08 09:24:22;;;;;;;7.60;5.93;;;29.60;92.50;;;;;;5091524;28;20651;-51
2023/07/08 09:26:51;;;;;;;8.30;6.20;;;29.70;92.30;;;;;;5091883;28;20172;-50
2023/07/08 09:29:17;;;;;;;7.75;5.43;;;29.70;91.30;;;;;;5091434;28;20157;-51
2023/07/08 09:31:43;;;;;;;9.85;6.40;;;29.70;91.30;;;;;;5091722;28;20176;-50
2023/07/08 09:34:13;;;;;;;7.00;5.70;;;29.80;91.40;;;;;;5091643;28;20175;-51
2023/07/08 09:36:45;;;;;;;6.35;5.07;;;29.70;91.00;;;;;;5091420;28;20540;-51
2023/07/08 09:39:16;;;;;;;7.70;5.05;;;29.90;91.40;;;;;;5091352;28;20161;-51
2023/07/08 09:41:44;;;;;;;8.55;6.05;;;30.10;91.50;;;;;;5091190;28;20197;-51
2023/07/08 09:44:16;;;;;;;7.97;5.53;;;30.20;90.70;;;;;;5091233;28;20157;-51
2023/07/08 09:46:42;;;;;;;6.63;5.25;;;30.40;90.90;;;;;;5091162;28;20165;-50
2023/07/08 09:49:35;;;;;;;7.18;5.60;;;30.30;90.10;;;;;;5091242;28;20168;-49
2023/07/08 09:52:02;;;;;;;7.53;5.40;;;30.30;88.40;;;;;;5087420;28;20173;-49
2023/07/08 09:54:27;;;;;;;6.35;5.32;;;30.50;88.90;;;;;;5091465;28;20169;-49
2023/07/08 09:57:11;;;;;;;10.20;5.60;;;30.60;87.20;;;;;;5091307;28;20577;-49
2023/07/08 09:59:46;;;;;;;10.85;5.53;;;30.60;87.40;;;;;;5073094;28;20196;-50
2023/07/08 10:02:39;;;;;;;7.47;5.22;;;30.80;87.60;;;;;;5091047;28;20209;-49
2023/07/08 10:05:12;;;;;;;6.32;5.28;;;30.90;87.20;;;;;;5091163;28;20196;-50
2023/07/08 10:07:38;;;;;;;7.82;5.38;;;31.00;86.30;;;;;;5091122;28;20183;-50
2023/07/08 10:10:10;;;;;;;10.25;5.80;;;31.00;86.20;;;;;;5091000;28;20216;-51
2023/07/08 10:12:39;;;;;;;10.02;5.55;;;31.00;85.80;;;;;;5072909;28;20168;-50
2023/07/08 10:15:19;;;;;;;8.13;5.78;;;31.20;86.10;;;;;;5091258;28;20184;-49
2023/07/08 10:17:45;;;;;;;5.95;5.32;;;31.40;87.20;;;;;;5094493;28;20161;-50
2023/07/08 10:20:12;;;;;;;6.50;5.82;;;31.40;85.00;;;;;;5094470;28;20172;-50
2023/07/08 10:22:58;;;;;;;7.70;5.07;;;31.40;84.90;;;;;;5094281;28;20180;-50
2023/07/08 10:26:10;;;;;;;9.05;5.10;;;31.60;83.90;;;;;;5094802;28;20192;-50
2023/07/08 10:28:58;;;;;;;7.07;4.25;;;31.60;82.50;;;;;;4992959;28;20323;-50
2023/07/08 10:31:32;;;;;;;8.30;6.18;;;31.70;83.20;;;;;;4987665;28;20626;-50
2023/07/08 10:34:27;;;;;;;10.38;5.50;;;31.90;83.10;;;;;;5066763;28;20172;-50
2023/07/08 10:37:17;;;;;;;10.73;5.95;;;31.80;82.50;;;;;;5094679;28;20171;-49
2023/07/08 10:39:51;;;;;;;8.93;5.55;;;31.90;82.50;;;;;;5094293;28;20570;-50
2023/07/08 10:42:38;;;;;;;11.38;5.95;;;31.00;81.90;;;;;;5094332;28;20310;-49
2023/07/08 10:45:16;;;;;;;10.20;6.05;;;32.30;83.20;;;;;;5094117;28;20160;-49
2023/07/08 10:47:55;;;;;;;11.52;6.85;;;32.40;82.20;;;;;;5094114;28;20165;-50
2023/07/08 10:50:48;;;;;;;12.60;6.55;;;32.40;81.00;;;;;;5094557;28;20164;-49
2023/07/08 10:53:52;;;;;;;9.93;5.63;;;32.60;82.70;;;;;;5094203;28;20165;-50
2023/07/08 10:56:28;;;;;;;9.57;7.05;;;32.60;82.10;;;;;;5094449;28;20164;-49
2023/07/08 10:59:23;;;;;;;10.77;6.50;;;32.50;81.80;;;;;;5094118;28;20165;-49
2023/07/08 11:02:20;;;;;;;9.05;5.93;;;32.70;80.50;;;;;;5057861;28;20216;-49
2023/07/08 11:05:09;;;;;;;10.23;5.55;;;32.70;79.20;;;;;;5083803;28;20165;-49
2023/07/08 11:08:08;;;;;;;10.25;6.65;;;32.80;79.60;;;;;;5089978;28;20213;-49
2023/07/08 11:10:46;;;;;;;10.48;5.50;;;32.90;80.10;;;;;;5016900;28;20856;-49
2023/07/08 11:13:16;;;;;;;10.05;6.60;;;32.90;80.40;;;;;;5090416;28;20183;-49
2023/07/08 11:16:05;;;;;;;7.28;6.00;;;32.90;78.40;;;;;;5093595;28;20566;-49
2023/07/08 11:18:48;;;;;;;8.20;6.07;;;33.00;80.60;;;;;;5093222;28;20165;-49
2023/07/08 11:21:18;;;;;;;7.55;5.45;;;33.10;80.00;;;;;;5093552;28;20218;-49
2023/07/08 11:23:50;;;;;;;12.93;8.90;;;33.10;77.90;;;;;;5093227;28;20621;-49
2023/07/08 11:26:25;;;;;;;9.40;5.75;;;33.20;79.20;;;;;;5093658;28;20540;-49
2023/07/08 11:28:56;;;;;;;11.90;5.53;;;33.50;77.80;;;;;;5093683;28;20160;-50
2023/07/08 11:31:23;;;;;;;8.93;5.82;;;33.50;77.30;;;;;;5093898;28;20168;-49
2023/07/08 11:33:51;;;;;;;9.18;5.60;;;33.60;76.60;;;;;;5093736;28;20175;-51
2023/07/08 11:36:17;;;;;;;9.45;6.45;;;33.40;76.00;;;;;;5093077;28;20189;-52
2023/07/08 11:38:51;;;;;;;11.48;7.03;;;33.50;76.50;;;;;;5093035;28;20520;-52
2023/07/08 11:41:20;;;;;;;8.80;7.28;;;33.60;77.00;;;;;;5093229;28;20258;-52
2023/07/08 11:43:50;;;;;;;9.77;6.88;;;33.70;77.60;;;;;;5093156;28;20620;-51
2023/07/08 11:46:25;;;;;;;9.55;5.13;;;33.70;75.50;;;;;;5093138;28;20531;-51
2023/07/08 11:48:53;;;;;;;6.72;5.32;;;33.40;74.10;;;;;;5093433;28;20168;-49
2023/07/08 11:51:31;;;;;;;12.32;7.43;;;33.60;73.60;;;;;;5093558;28;20253;-49
2023/07/08 11:54:09;;;;;;;6.50;5.53;;;33.80;73.40;;;;;;5093057;28;20157;-50
2023/07/08 11:57:00;;;;;;;12.52;6.03;;;34.00;76.20;;;;;;5092525;28;20180;-50
2023/07/08 11:59:31;;;;;;;15.50;5.65;;;34.00;73.50;;;;;;5093183;28;20176;-50
2023/07/08 12:02:15;;;;;;;8.00;5.47;;;34.00;73.40;;;;;;5092806;28;20241;-50
2023/07/08 12:05:16;;;;;;;8.68;6.20;;;33.90;72.60;;;;;;5092976;28;20168;-50
2023/07/08 12:07:46;;;;;;;11.88;5.93;;;33.90;71.80;;;;;;4991092;28;20226;-50
2023/07/08 12:10:30;;;;;;;9.07;5.88;;;34.10;73.60;;;;;;5074741;28;20672;-50
2023/07/08 12:12:56;;;;;;;10.95;5.75;;;34.30;73.70;;;;;;5092602;28;20164;-50
2023/07/08 12:15:30;;;;;;;6.03;4.72;;;34.40;72.40;;;;;;5074743;28;20183;-50
2023/07/08 12:18:00;;;;;;;7.28;5.90;;;34.20;69.40;;;;;;5092520;28;20159;-50
2023/07/08 12:20:29;;;;;;;7.50;5.20;;;34.30;69.20;;;;;;5092314;28;20232;-51
2023/07/08 12:22:55;;;;;;;7.55;5.55;;;34.20;67.20;;;;;;5092443;28;20173;-50
2023/07/08 12:25:32;;;;;;;9.80;5.13;;;34.30;71.20;;;;;;5092772;28;20494;-49
2023/07/08 12:27:58;;;;;;;13.25;5.85;;;34.20;69.80;;;;;;5092635;28;20191;-49
2023/07/08 12:30:27;;;;;;;10.40;5.43;;;34.40;71.00;;;;;;5092390;28;20202;-51
2023/07/08 12:32:54;;;;;;;9.30;5.72;;;34.50;70.80;;;;;;5092682;28;20161;-50
2023/07/08 12:35:26;;;;;;;9.63;6.10;;;34.60;70.50;;;;;;5092912;28;20191;-50
2023/07/08 12:37:54;;;;;;;6.47;5.15;;;34.60;69.50;;;;;;5092874;28;20165;-50
2023/07/08 12:40:23;;;;;;;7.70;5.40;;;34.60;70.60;;;;;;5091724;28;20625;-50
2023/07/08 12:42:49;;;;;;;9.00;6.15;;;34.50;68.40;;;;;;5092396;28;20537;-51
2023/07/08 12:45:18;;;;;;;13.65;6.50;;;34.40;68.20;;;;;;5092087;28;20172;-50
2023/07/08 12:47:45;;;;;;;8.50;5.22;;;34.50;68.90;;;;;;5091593;28;20157;-50
2023/07/08 12:50:11;;;;;;;14.48;6.95;;;34.70;70.30;;;;;;5073281;28;20651;-52
2023/07/08 12:52:37;;;;;;;30.52;17.63;;;34.90;70.10;;;;;;5092017;28;20248;-50
2023/07/08 12:55:03;;;;;;;6.65;5.43;;;34.80;68.90;;;;;;5091943;28;20717;-51
2023/07/08 12:57:29;;;;;;;6.82;5.03;;;34.90;68.80;;;;;;5092163;28;20195;-51
2023/07/08 12:59:55;;;;;;;11.52;6.65;;;34.90;68.10;;;;;;5091482;28;20165;-51